sensor_id;sensor_type;location;lat;lon;timestamp;P1;durP1;ratioP1;P2;durP2;ratioP2
6197;SDS011;3132;42.622;23.328;2023-05-10T00:01:05;12.40;;;11.50;;
6197;SDS011;3132;42.622;23.328;2023-05-10T00:03:31;12.37;;;11.40;;
6197;SDS011;3132;42.622;23.328;2023-05-10T00:05:56;12.77;;;11.87;;
6197;SDS011;3132;42.622;23.328;2023-05-10T00:08:22;10.43;;;9.77;;
6197;SDS011;3132;42.622;23.328;2023-05-10T00:10:47;11.93;;;11.20;;
6197;SDS011;3132;42.622;23.328;2023-05-10T00:13:13;12.27;;;11.47;;
6197;SDS011;3132;42.622;23.328;2023-05-10T00:15:38;12.53;;;11.70;;
6197;SDS011;3132;42.622;23.328;2023-05-10T00:18:04;11.83;;;10.97;;
6197;SDS011;3132;42.622;23.328;2023-05-10T00:20:29;12.77;;;11.97;;
6197;SDS011;3132;42.622;23.328;2023-05-10T00:22:55;11.33;;;10.53;;
6197;SDS011;3132;42.622;23.328;2023-05-10T00:25:20;14.17;;;13.27;;
6197;SDS011;3132;42.622;23.328;2023-05-10T00:27:46;13.40;;;12.40;;
6197;SDS011;3132;42.622;23.328;2023-05-10T00:30:12;12.47;;;11.53;;
6197;SDS011;3132;42.622;23.328;2023-05-10T00:32:38;11.97;;;11.20;;
6197;SDS011;3132;42.622;23.328;2023-05-10T00:35:04;12.83;;;11.93;;
6197;SDS011;3132;42.622;23.328;2023-05-10T00:37:29;13.07;;;12.07;;
6197;SDS011;3132;42.622;23.328;2023-05-10T00:39:55;12.13;;;11.33;;
6197;SDS011;3132;42.622;23.328;2023-05-10T00:42:20;13.37;;;12.47;;
6197;SDS011;3132;42.622;23.328;2023-05-10T00:44:47;13.43;;;12.53;;
6197;SDS011;3132;42.622;23.328;2023-05-10T00:47:12;12.73;;;11.83;;
6197;SDS011;3132;42.622;23.328;2023-05-10T00:49:38;11.53;;;10.73;;
6197;SDS011;3132;42.622;23.328;2023-05-10T00:52:04;12.87;;;12.03;;
6197;SDS011;3132;42.622;23.328;2023-05-10T00:54:29;13.13;;;12.33;;
6197;SDS011;3132;42.622;23.328;2023-05-10T00:56:55;11.20;;;10.50;;
6197;SDS011;3132;42.622;23.328;2023-05-10T00:59:22;13.33;;;12.53;;
6197;SDS011;3132;42.622;23.328;2023-05-10T01:01:47;12.50;;;11.80;;
6197;SDS011;3132;42.622;23.328;2023-05-10T01:04:13;11.80;;;10.97;;
6197;SDS011;3132;42.622;23.328;2023-05-10T01:06:40;11.50;;;10.70;;
6197;SDS011;3132;42.622;23.328;2023-05-10T01:09:06;12.60;;;11.60;;
6197;SDS011;3132;42.622;23.328;2023-05-10T01:11:35;12.10;;;11.30;;
6197;SDS011;3132;42.622;23.328;2023-05-10T01:14:01;12.23;;;11.40;;
6197;SDS011;3132;42.622;23.328;2023-05-10T01:16:27;13.00;;;12.10;;
6197;SDS011;3132;42.622;23.328;2023-05-10T01:18:55;13.00;;;12.17;;
6197;SDS011;3132;42.622;23.328;2023-05-10T01:21:38;12.87;;;11.93;;
6197;SDS011;3132;42.622;23.328;2023-05-10T01:32:34;12.27;;;11.50;;
6197;SDS011;3132;42.622;23.328;2023-05-10T01:35:06;11.60;;;10.93;;
6197;SDS011;3132;42.622;23.328;2023-05-10T01:42:47;11.97;;;11.27;;
6197;SDS011;3132;42.622;23.328;2023-05-10T01:45:20;12.20;;;11.30;;
6197;SDS011;3132;42.622;23.328;2023-05-10T01:48:09;11.77;;;11.07;;
6197;SDS011;3132;42.622;23.328;2023-05-10T01:50:37;11.90;;;11.10;;
6197;SDS011;3132;42.622;23.328;2023-05-10T01:53:07;10.67;;;10.07;;
6197;SDS011;3132;42.622;23.328;2023-05-10T01:55:35;11.60;;;10.90;;
6197;SDS011;3132;42.622;23.328;2023-05-10T01:58:13;10.67;;;10.07;;
6197;SDS011;3132;42.622;23.328;2023-05-10T02:00:42;10.30;;;9.77;;
6197;SDS011;3132;42.622;23.328;2023-05-10T02:03:09;10.70;;;10.10;;
6197;SDS011;3132;42.622;23.328;2023-05-10T02:05:36;11.17;;;10.67;;
6197;SDS011;3132;42.622;23.328;2023-05-10T02:08:05;10.30;;;9.80;;
6197;SDS011;3132;42.622;23.328;2023-05-10T02:10:36;10.60;;;10.10;;
6197;SDS011;3132;42.622;23.328;2023-05-10T02:13:03;10.53;;;9.93;;
6197;SDS011;3132;42.622;23.328;2023-05-10T02:15:31;10.17;;;9.67;;
6197;SDS011;3132;42.622;23.328;2023-05-10T02:17:57;9.67;;;9.17;;
6197;SDS011;3132;42.622;23.328;2023-05-10T02:20:25;10.17;;;9.57;;
6197;SDS011;3132;42.622;23.328;2023-05-10T02:22:51;10.47;;;9.97;;
6197;SDS011;3132;42.622;23.328;2023-05-10T02:25:19;10.27;;;9.77;;
6197;SDS011;3132;42.622;23.328;2023-05-10T02:27:47;10.20;;;9.70;;
6197;SDS011;3132;42.622;23.328;2023-05-10T02:30:14;10.33;;;9.63;;
6197;SDS011;3132;42.622;23.328;2023-05-10T02:32:40;12.80;;;12.00;;
6197;SDS011;3132;42.622;23.328;2023-05-10T02:35:07;10.57;;;10.07;;
6197;SDS011;3132;42.622;23.328;2023-05-10T02:37:35;11.13;;;10.63;;
6197;SDS011;3132;42.622;23.328;2023-05-10T02:40:02;10.23;;;9.67;;
6197;SDS011;3132;42.622;23.328;2023-05-10T02:42:29;10.27;;;9.53;;
6197;SDS011;3132;42.622;23.328;2023-05-10T02:44:59;11.13;;;10.50;;
6197;SDS011;3132;42.622;23.328;2023-05-10T02:47:26;10.57;;;9.97;;
6197;SDS011;3132;42.622;23.328;2023-05-10T02:49:53;10.97;;;10.37;;
6197;SDS011;3132;42.622;23.328;2023-05-10T02:52:21;10.23;;;9.53;;
6197;SDS011;3132;42.622;23.328;2023-05-10T02:54:50;10.73;;;10.13;;
6197;SDS011;3132;42.622;23.328;2023-05-10T02:57:22;9.57;;;9.17;;
6197;SDS011;3132;42.622;23.328;2023-05-10T02:59:54;10.73;;;9.83;;
6197;SDS011;3132;42.622;23.328;2023-05-10T03:02:20;10.20;;;9.70;;
6197;SDS011;3132;42.622;23.328;2023-05-10T03:04:46;10.43;;;9.90;;
6197;SDS011;3132;42.622;23.328;2023-05-10T03:07:11;9.47;;;9.07;;
6197;SDS011;3132;42.622;23.328;2023-05-10T03:09:37;9.77;;;9.37;;
6197;SDS011;3132;42.622;23.328;2023-05-10T03:12:14;9.43;;;8.87;;
6197;SDS011;3132;42.622;23.328;2023-05-10T03:14:49;10.10;;;9.43;;
6197;SDS011;3132;42.622;23.328;2023-05-10T03:17:30;10.53;;;9.83;;
6197;SDS011;3132;42.622;23.328;2023-05-10T03:20:11;9.60;;;9.10;;
6197;SDS011;3132;42.622;23.328;2023-05-10T03:22:45;10.93;;;10.13;;
6197;SDS011;3132;42.622;23.328;2023-05-10T03:25:15;9.80;;;9.40;;
6197;SDS011;3132;42.622;23.328;2023-05-10T03:27:43;11.17;;;10.47;;
6197;SDS011;3132;42.622;23.328;2023-05-10T03:30:10;9.70;;;9.20;;
6197;SDS011;3132;42.622;23.328;2023-05-10T03:32:37;11.07;;;10.50;;
6197;SDS011;3132;42.622;23.328;2023-05-10T03:35:06;9.90;;;9.40;;
6197;SDS011;3132;42.622;23.328;2023-05-10T03:37:35;11.13;;;10.43;;
6197;SDS011;3132;42.622;23.328;2023-05-10T03:40:01;10.33;;;9.73;;
6197;SDS011;3132;42.622;23.328;2023-05-10T03:42:27;11.03;;;10.43;;
6197;SDS011;3132;42.622;23.328;2023-05-10T03:44:52;10.37;;;9.77;;
6197;SDS011;3132;42.622;23.328;2023-05-10T03:47:18;11.00;;;10.50;;
6197;SDS011;3132;42.622;23.328;2023-05-10T03:49:43;10.53;;;9.93;;
6197;SDS011;3132;42.622;23.328;2023-05-10T03:52:09;10.73;;;10.03;;
6197;SDS011;3132;42.622;23.328;2023-05-10T03:54:34;11.57;;;10.87;;
6197;SDS011;3132;42.622;23.328;2023-05-10T03:56:59;11.97;;;11.17;;
6197;SDS011;3132;42.622;23.328;2023-05-10T03:59:26;11.97;;;11.17;;
6197;SDS011;3132;42.622;23.328;2023-05-10T04:01:51;13.50;;;12.67;;
6197;SDS011;3132;42.622;23.328;2023-05-10T04:04:17;12.80;;;11.93;;
6197;SDS011;3132;42.622;23.328;2023-05-10T04:06:43;12.43;;;11.63;;
6197;SDS011;3132;42.622;23.328;2023-05-10T04:09:09;11.93;;;11.07;;
6197;SDS011;3132;42.622;23.328;2023-05-10T04:11:35;11.87;;;11.00;;
6197;SDS011;3132;42.622;23.328;2023-05-10T04:14:01;12.13;;;11.27;;
6197;SDS011;3132;42.622;23.328;2023-05-10T04:16:27;13.23;;;12.33;;
6197;SDS011;3132;42.622;23.328;2023-05-10T04:18:52;11.87;;;11.17;;
6197;SDS011;3132;42.622;23.328;2023-05-10T04:21:18;13.13;;;12.23;;
6197;SDS011;3132;42.622;23.328;2023-05-10T04:23:43;12.63;;;11.67;;
6197;SDS011;3132;42.622;23.328;2023-05-10T04:26:08;12.60;;;11.50;;
6197;SDS011;3132;42.622;23.328;2023-05-10T04:28:34;13.87;;;12.97;;
6197;SDS011;3132;42.622;23.328;2023-05-10T04:31:01;13.10;;;12.20;;
6197;SDS011;3132;42.622;23.328;2023-05-10T04:33:29;14.27;;;13.17;;
6197;SDS011;3132;42.622;23.328;2023-05-10T04:35:55;12.50;;;11.60;;
6197;SDS011;3132;42.622;23.328;2023-05-10T04:38:21;12.43;;;11.53;;
6197;SDS011;3132;42.622;23.328;2023-05-10T04:40:46;13.33;;;12.43;;
6197;SDS011;3132;42.622;23.328;2023-05-10T04:43:12;12.80;;;11.70;;
6197;SDS011;3132;42.622;23.328;2023-05-10T04:45:37;14.70;;;13.60;;
6197;SDS011;3132;42.622;23.328;2023-05-10T04:48:02;13.67;;;12.47;;
6197;SDS011;3132;42.622;23.328;2023-05-10T04:50:28;13.80;;;12.90;;
6197;SDS011;3132;42.622;23.328;2023-05-10T04:52:53;14.23;;;12.73;;
6197;SDS011;3132;42.622;23.328;2023-05-10T04:55:19;10.77;;;10.07;;
6197;SDS011;3132;42.622;23.328;2023-05-10T04:57:44;13.17;;;12.27;;
6197;SDS011;3132;42.622;23.328;2023-05-10T05:00:10;12.67;;;11.80;;
6197;SDS011;3132;42.622;23.328;2023-05-10T05:02:36;11.93;;;11.17;;
6197;SDS011;3132;42.622;23.328;2023-05-10T05:05:01;11.60;;;10.80;;
6197;SDS011;3132;42.622;23.328;2023-05-10T05:07:27;12.37;;;11.50;;
6197;SDS011;3132;42.622;23.328;2023-05-10T05:09:52;12.27;;;11.47;;
6197;SDS011;3132;42.622;23.328;2023-05-10T05:12:17;12.70;;;11.67;;
6197;SDS011;3132;42.622;23.328;2023-05-10T05:14:43;11.93;;;11.23;;
6197;SDS011;3132;42.622;23.328;2023-05-10T05:17:08;12.90;;;12.00;;
6197;SDS011;3132;42.622;23.328;2023-05-10T05:19:33;12.30;;;11.50;;
6197;SDS011;3132;42.622;23.328;2023-05-10T05:21:59;12.60;;;11.80;;
6197;SDS011;3132;42.622;23.328;2023-05-10T05:24:24;11.37;;;10.60;;
6197;SDS011;3132;42.622;23.328;2023-05-10T05:26:50;11.47;;;10.77;;
6197;SDS011;3132;42.622;23.328;2023-05-10T05:29:15;13.43;;;12.43;;
6197;SDS011;3132;42.622;23.328;2023-05-10T05:31:41;13.13;;;12.13;;
6197;SDS011;3132;42.622;23.328;2023-05-10T05:34:06;13.83;;;12.73;;
6197;SDS011;3132;42.622;23.328;2023-05-10T05:36:31;13.37;;;12.50;;
6197;SDS011;3132;42.622;23.328;2023-05-10T05:38:57;13.10;;;12.20;;
6197;SDS011;3132;42.622;23.328;2023-05-10T05:41:23;14.50;;;13.50;;
6197;SDS011;3132;42.622;23.328;2023-05-10T05:43:49;13.13;;;12.13;;
6197;SDS011;3132;42.622;23.328;2023-05-10T05:46:15;13.70;;;12.70;;
6197;SDS011;3132;42.622;23.328;2023-05-10T05:48:40;14.00;;;12.90;;
6197;SDS011;3132;42.622;23.328;2023-05-10T05:51:06;13.50;;;12.50;;
6197;SDS011;3132;42.622;23.328;2023-05-10T05:53:31;14.43;;;13.43;;
6197;SDS011;3132;42.622;23.328;2023-05-10T05:55:57;44.80;;;41.80;;
6197;SDS011;3132;42.622;23.328;2023-05-10T05:58:24;14.63;;;13.30;;
6197;SDS011;3132;42.622;23.328;2023-05-10T06:00:50;16.30;;;14.87;;
6197;SDS011;3132;42.622;23.328;2023-05-10T06:03:17;14.73;;;13.63;;
6197;SDS011;3132;42.622;23.328;2023-05-10T06:05:43;14.30;;;13.10;;
6197;SDS011;3132;42.622;23.328;2023-05-10T06:08:08;13.90;;;12.77;;
6197;SDS011;3132;42.622;23.328;2023-05-10T06:10:34;16.63;;;15.03;;
6197;SDS011;3132;42.622;23.328;2023-05-10T06:12:59;15.60;;;14.30;;
6197;SDS011;3132;42.622;23.328;2023-05-10T06:15:25;13.63;;;12.63;;
6197;SDS011;3132;42.622;23.328;2023-05-10T06:17:51;14.00;;;12.70;;
6197;SDS011;3132;42.622;23.328;2023-05-10T06:20:16;15.53;;;14.13;;
6197;SDS011;3132;42.622;23.328;2023-05-10T06:22:42;14.30;;;13.03;;
6197;SDS011;3132;42.622;23.328;2023-05-10T06:25:07;15.43;;;13.97;;
6197;SDS011;3132;42.622;23.328;2023-05-10T06:27:33;14.23;;;12.83;;
6197;SDS011;3132;42.622;23.328;2023-05-10T06:29:59;16.03;;;14.73;;
6197;SDS011;3132;42.622;23.328;2023-05-10T06:32:25;17.13;;;15.70;;
6197;SDS011;3132;42.622;23.328;2023-05-10T06:34:50;16.67;;;15.17;;
6197;SDS011;3132;42.622;23.328;2023-05-10T06:37:16;16.23;;;14.83;;
6197;SDS011;3132;42.622;23.328;2023-05-10T06:39:41;15.37;;;14.07;;
6197;SDS011;3132;42.622;23.328;2023-05-10T06:42:06;15.27;;;13.87;;
6197;SDS011;3132;42.622;23.328;2023-05-10T06:44:32;14.77;;;13.47;;
6197;SDS011;3132;42.622;23.328;2023-05-10T06:46:58;14.43;;;13.17;;
6197;SDS011;3132;42.622;23.328;2023-05-10T06:49:23;15.67;;;14.43;;
6197;SDS011;3132;42.622;23.328;2023-05-10T06:51:48;14.97;;;13.77;;
6197;SDS011;3132;42.622;23.328;2023-05-10T06:54:14;16.50;;;14.90;;
6197;SDS011;3132;42.622;23.328;2023-05-10T06:56:39;17.80;;;14.63;;
6197;SDS011;3132;42.622;23.328;2023-05-10T06:59:06;15.57;;;14.10;;
6197;SDS011;3132;42.622;23.328;2023-05-10T07:01:31;17.83;;;14.80;;
6197;SDS011;3132;42.622;23.328;2023-05-10T07:03:57;16.83;;;15.23;;
6197;SDS011;3132;42.622;23.328;2023-05-10T07:06:22;15.87;;;14.37;;
6197;SDS011;3132;42.622;23.328;2023-05-10T07:08:47;16.10;;;14.60;;
6197;SDS011;3132;42.622;23.328;2023-05-10T07:11:13;13.97;;;12.53;;
6197;SDS011;3132;42.622;23.328;2023-05-10T07:13:38;14.90;;;13.60;;
6197;SDS011;3132;42.622;23.328;2023-05-10T07:16:06;15.80;;;14.40;;
6197;SDS011;3132;42.622;23.328;2023-05-10T07:18:32;15.83;;;14.30;;
6197;SDS011;3132;42.622;23.328;2023-05-10T07:20:58;14.57;;;13.27;;
6197;SDS011;3132;42.622;23.328;2023-05-10T07:23:23;14.40;;;13.20;;
6197;SDS011;3132;42.622;23.328;2023-05-10T07:25:49;15.80;;;14.30;;
6197;SDS011;3132;42.622;23.328;2023-05-10T07:28:19;15.17;;;13.87;;
6197;SDS011;3132;42.622;23.328;2023-05-10T07:30:45;15.27;;;13.93;;
6197;SDS011;3132;42.622;23.328;2023-05-10T07:33:11;15.13;;;13.93;;
6197;SDS011;3132;42.622;23.328;2023-05-10T07:35:37;13.97;;;12.73;;
6197;SDS011;3132;42.622;23.328;2023-05-10T07:38:03;16.27;;;14.67;;
6197;SDS011;3132;42.622;23.328;2023-05-10T07:40:28;14.43;;;13.33;;
6197;SDS011;3132;42.622;23.328;2023-05-10T07:42:54;14.93;;;13.57;;
6197;SDS011;3132;42.622;23.328;2023-05-10T07:45:20;14.70;;;13.20;;
6197;SDS011;3132;42.622;23.328;2023-05-10T07:47:45;15.73;;;13.83;;
6197;SDS011;3132;42.622;23.328;2023-05-10T07:50:11;14.07;;;12.93;;
6197;SDS011;3132;42.622;23.328;2023-05-10T07:52:36;15.93;;;14.53;;
6197;SDS011;3132;42.622;23.328;2023-05-10T07:55:02;16.07;;;14.77;;
6197;SDS011;3132;42.622;23.328;2023-05-10T07:57:27;15.43;;;14.23;;
6197;SDS011;3132;42.622;23.328;2023-05-10T07:59:53;14.93;;;13.50;;
6197;SDS011;3132;42.622;23.328;2023-05-10T08:02:18;15.83;;;14.23;;
6197;SDS011;3132;42.622;23.328;2023-05-10T08:04:43;18.10;;;16.57;;
6197;SDS011;3132;42.622;23.328;2023-05-10T08:07:09;15.23;;;13.93;;
6197;SDS011;3132;42.622;23.328;2023-05-10T08:09:35;15.77;;;14.27;;
6197;SDS011;3132;42.622;23.328;2023-05-10T08:12:01;16.13;;;14.73;;
6197;SDS011;3132;42.622;23.328;2023-05-10T08:14:28;15.70;;;14.30;;
6197;SDS011;3132;42.622;23.328;2023-05-10T08:16:54;16.53;;;15.23;;
6197;SDS011;3132;42.622;23.328;2023-05-10T08:19:20;15.27;;;13.83;;
6197;SDS011;3132;42.622;23.328;2023-05-10T08:21:46;15.93;;;14.30;;
6197;SDS011;3132;42.622;23.328;2023-05-10T08:24:12;14.43;;;13.23;;
6197;SDS011;3132;42.622;23.328;2023-05-10T08:26:37;15.10;;;13.80;;
6197;SDS011;3132;42.622;23.328;2023-05-10T08:29:03;15.13;;;14.03;;
6197;SDS011;3132;42.622;23.328;2023-05-10T08:31:28;16.03;;;14.73;;
6197;SDS011;3132;42.622;23.328;2023-05-10T08:33:54;16.67;;;15.17;;
6197;SDS011;3132;42.622;23.328;2023-05-10T08:36:19;16.37;;;15.07;;
6197;SDS011;3132;42.622;23.328;2023-05-10T08:38:49;15.60;;;14.30;;
6197;SDS011;3132;42.622;23.328;2023-05-10T08:41:15;14.73;;;13.33;;
6197;SDS011;3132;42.622;23.328;2023-05-10T08:43:42;16.97;;;15.57;;
6197;SDS011;3132;42.622;23.328;2023-05-10T08:46:11;14.10;;;12.90;;
6197;SDS011;3132;42.622;23.328;2023-05-10T08:48:42;15.40;;;14.00;;
6197;SDS011;3132;42.622;23.328;2023-05-10T08:51:09;16.23;;;14.83;;
6197;SDS011;3132;42.622;23.328;2023-05-10T08:53:37;15.57;;;14.37;;
6197;SDS011;3132;42.622;23.328;2023-05-10T08:56:03;15.33;;;14.03;;
6197;SDS011;3132;42.622;23.328;2023-05-10T08:58:29;16.00;;;14.70;;
6197;SDS011;3132;42.622;23.328;2023-05-10T09:00:55;16.50;;;15.10;;
6197;SDS011;3132;42.622;23.328;2023-05-10T09:03:22;15.13;;;14.03;;
6197;SDS011;3132;42.622;23.328;2023-05-10T09:05:50;15.70;;;14.40;;
6197;SDS011;3132;42.622;23.328;2023-05-10T09:08:16;15.73;;;14.37;;
6197;SDS011;3132;42.622;23.328;2023-05-10T09:10:42;15.60;;;14.30;;
6197;SDS011;3132;42.622;23.328;2023-05-10T09:13:09;15.03;;;13.83;;
6197;SDS011;3132;42.622;23.328;2023-05-10T09:15:36;15.80;;;14.33;;
6197;SDS011;3132;42.622;23.328;2023-05-10T09:18:02;17.23;;;15.83;;
6197;SDS011;3132;42.622;23.328;2023-05-10T09:20:28;16.23;;;15.00;;
6197;SDS011;3132;42.622;23.328;2023-05-10T09:22:53;17.33;;;15.73;;
6197;SDS011;3132;42.622;23.328;2023-05-10T09:25:19;16.60;;;15.30;;
6197;SDS011;3132;42.622;23.328;2023-05-10T09:27:45;16.30;;;15.00;;
6197;SDS011;3132;42.622;23.328;2023-05-10T09:32:54;17.20;;;15.60;;
6197;SDS011;3132;42.622;23.328;2023-05-10T09:35:20;15.57;;;14.30;;
6197;SDS011;3132;42.622;23.328;2023-05-10T09:37:51;16.27;;;14.87;;
6197;SDS011;3132;42.622;23.328;2023-05-10T09:40:22;16.27;;;14.80;;
6197;SDS011;3132;42.622;23.328;2023-05-10T09:42:52;16.07;;;14.77;;
6197;SDS011;3132;42.622;23.328;2023-05-10T09:45:25;14.13;;;12.83;;
6197;SDS011;3132;42.622;23.328;2023-05-10T09:47:52;17.13;;;15.63;;
6197;SDS011;3132;42.622;23.328;2023-05-10T09:50:18;16.50;;;15.10;;
6197;SDS011;3132;42.622;23.328;2023-05-10T09:52:54;17.83;;;16.30;;
6197;SDS011;3132;42.622;23.328;2023-05-10T09:55:25;16.83;;;15.43;;
6197;SDS011;3132;42.622;23.328;2023-05-10T09:58:02;14.97;;;13.83;;
6197;SDS011;3132;42.622;23.328;2023-05-10T10:00:34;16.07;;;14.70;;
6197;SDS011;3132;42.622;23.328;2023-05-10T10:03:00;17.07;;;15.37;;
6197;SDS011;3132;42.622;23.328;2023-05-10T10:05:30;17.00;;;15.30;;
6197;SDS011;3132;42.622;23.328;2023-05-10T10:08:00;16.43;;;15.07;;
6197;SDS011;3132;42.622;23.328;2023-05-10T10:10:28;20.67;;;15.53;;
6197;SDS011;3132;42.622;23.328;2023-05-10T10:12:54;17.83;;;16.33;;
6197;SDS011;3132;42.622;23.328;2023-05-10T10:15:20;16.93;;;15.53;;
6197;SDS011;3132;42.622;23.328;2023-05-10T10:17:46;17.43;;;15.93;;
6197;SDS011;3132;42.622;23.328;2023-05-10T10:20:14;16.40;;;14.90;;
6197;SDS011;3132;42.622;23.328;2023-05-10T10:22:40;17.33;;;15.73;;
6197;SDS011;3132;42.622;23.328;2023-05-10T10:25:05;17.17;;;15.47;;
6197;SDS011;3132;42.622;23.328;2023-05-10T10:35:34;15.63;;;14.43;;
6197;SDS011;3132;42.622;23.328;2023-05-10T10:38:00;17.47;;;16.00;;
6197;SDS011;3132;42.622;23.328;2023-05-10T10:40:34;16.13;;;14.73;;
6197;SDS011;3132;42.622;23.328;2023-05-10T10:49:07;16.97;;;15.60;;
6197;SDS011;3132;42.622;23.328;2023-05-10T10:51:38;15.60;;;14.00;;
6197;SDS011;3132;42.622;23.328;2023-05-10T10:54:09;15.20;;;13.83;;
6197;SDS011;3132;42.622;23.328;2023-05-10T10:56:35;17.50;;;15.93;;
6197;SDS011;3132;42.622;23.328;2023-05-10T10:59:01;16.73;;;15.23;;
6197;SDS011;3132;42.622;23.328;2023-05-10T11:01:26;17.13;;;15.57;;
6197;SDS011;3132;42.622;23.328;2023-05-10T11:06:30;17.33;;;15.93;;
6197;SDS011;3132;42.622;23.328;2023-05-10T11:09:09;16.60;;;15.20;;
6197;SDS011;3132;42.622;23.328;2023-05-10T11:11:37;16.87;;;15.33;;
6197;SDS011;3132;42.622;23.328;2023-05-10T11:14:14;16.43;;;14.93;;
6197;SDS011;3132;42.622;23.328;2023-05-10T11:16:42;17.70;;;15.20;;
6197;SDS011;3132;42.622;23.328;2023-05-10T11:19:09;15.90;;;14.67;;
6197;SDS011;3132;42.622;23.328;2023-05-10T11:21:50;16.07;;;14.57;;
6197;SDS011;3132;42.622;23.328;2023-05-10T11:24:36;15.60;;;14.07;;
6197;SDS011;3132;42.622;23.328;2023-05-10T11:27:01;17.13;;;15.73;;
6197;SDS011;3132;42.622;23.328;2023-05-10T11:29:27;15.13;;;13.83;;
6197;SDS011;3132;42.622;23.328;2023-05-10T11:31:52;16.87;;;15.27;;
6197;SDS011;3132;42.622;23.328;2023-05-10T11:34:28;16.17;;;14.53;;
6197;SDS011;3132;42.622;23.328;2023-05-10T11:36:55;18.90;;;17.23;;
6197;SDS011;3132;42.622;23.328;2023-05-10T11:39:28;17.53;;;15.60;;
6197;SDS011;3132;42.622;23.328;2023-05-10T11:41:56;14.63;;;13.40;;
6197;SDS011;3132;42.622;23.328;2023-05-10T11:44:22;16.77;;;15.20;;
6197;SDS011;3132;42.622;23.328;2023-05-10T11:46:47;16.40;;;14.70;;
6197;SDS011;3132;42.622;23.328;2023-05-10T11:49:14;16.33;;;14.73;;
6197;SDS011;3132;42.622;23.328;2023-05-10T11:51:39;15.80;;;14.33;;
6197;SDS011;3132;42.622;23.328;2023-05-10T11:54:07;16.63;;;15.13;;
6197;SDS011;3132;42.622;23.328;2023-05-10T11:56:34;16.97;;;15.37;;
6197;SDS011;3132;42.622;23.328;2023-05-10T11:58:59;15.43;;;14.13;;
6197;SDS011;3132;42.622;23.328;2023-05-10T12:01:27;17.43;;;15.87;;
6197;SDS011;3132;42.622;23.328;2023-05-10T12:03:54;16.77;;;15.27;;
6197;SDS011;3132;42.622;23.328;2023-05-10T12:06:25;17.70;;;16.20;;
6197;SDS011;3132;42.622;23.328;2023-05-10T12:08:52;16.83;;;15.47;;
6197;SDS011;3132;42.622;23.328;2023-05-10T12:11:18;16.83;;;15.33;;
6197;SDS011;3132;42.622;23.328;2023-05-10T12:13:45;15.33;;;13.97;;
6197;SDS011;3132;42.622;23.328;2023-05-10T12:16:24;16.60;;;15.10;;
6197;SDS011;3132;42.622;23.328;2023-05-10T12:18:54;16.97;;;15.53;;
6197;SDS011;3132;42.622;23.328;2023-05-10T12:21:21;17.00;;;15.40;;
6197;SDS011;3132;42.622;23.328;2023-05-10T12:23:51;18.77;;;16.93;;
6197;SDS011;3132;42.622;23.328;2023-05-10T12:26:21;17.23;;;15.60;;
6197;SDS011;3132;42.622;23.328;2023-05-10T12:28:48;16.03;;;14.50;;
6197;SDS011;3132;42.622;23.328;2023-05-10T12:31:13;16.73;;;15.13;;
6197;SDS011;3132;42.622;23.328;2023-05-10T12:33:39;16.77;;;15.07;;
6197;SDS011;3132;42.622;23.328;2023-05-10T12:36:08;16.63;;;15.17;;
6197;SDS011;3132;42.622;23.328;2023-05-10T12:38:38;17.57;;;15.87;;
6197;SDS011;3132;42.622;23.328;2023-05-10T12:41:11;17.70;;;15.90;;
6197;SDS011;3132;42.622;23.328;2023-05-10T12:43:38;16.83;;;15.10;;
6197;SDS011;3132;42.622;23.328;2023-05-10T12:46:08;17.07;;;15.33;;
6197;SDS011;3132;42.622;23.328;2023-05-10T12:48:34;17.30;;;15.57;;
6197;SDS011;3132;42.622;23.328;2023-05-10T12:51:01;17.30;;;15.77;;
6197;SDS011;3132;42.622;23.328;2023-05-10T12:53:27;18.30;;;16.00;;
6197;SDS011;3132;42.622;23.328;2023-05-10T12:55:52;17.53;;;15.73;;
6197;SDS011;3132;42.622;23.328;2023-05-10T12:58:18;18.07;;;16.20;;
6197;SDS011;3132;42.622;23.328;2023-05-10T13:00:44;18.83;;;16.57;;
6197;SDS011;3132;42.622;23.328;2023-05-10T13:03:10;16.07;;;14.47;;
6197;SDS011;3132;42.622;23.328;2023-05-10T13:05:36;18.77;;;17.23;;
6197;SDS011;3132;42.622;23.328;2023-05-10T13:08:01;16.13;;;14.73;;
6197;SDS011;3132;42.622;23.328;2023-05-10T13:10:29;18.17;;;16.43;;
6197;SDS011;3132;42.622;23.328;2023-05-10T13:12:55;17.10;;;15.60;;
6197;SDS011;3132;42.622;23.328;2023-05-10T13:15:21;16.80;;;15.20;;
6197;SDS011;3132;42.622;23.328;2023-05-10T13:17:46;16.27;;;14.97;;
6197;SDS011;3132;42.622;23.328;2023-05-10T13:20:11;15.77;;;14.47;;
6197;SDS011;3132;42.622;23.328;2023-05-10T13:22:37;19.10;;;16.20;;
6197;SDS011;3132;42.622;23.328;2023-05-10T13:25:02;15.73;;;13.97;;
6197;SDS011;3132;42.622;23.328;2023-05-10T13:27:28;16.77;;;15.10;;
6197;SDS011;3132;42.622;23.328;2023-05-10T13:29:53;17.40;;;15.97;;
6197;SDS011;3132;42.622;23.328;2023-05-10T13:32:19;15.50;;;14.00;;
6197;SDS011;3132;42.622;23.328;2023-05-10T13:34:45;16.73;;;15.30;;
6197;SDS011;3132;42.622;23.328;2023-05-10T13:37:10;16.40;;;14.73;;
6197;SDS011;3132;42.622;23.328;2023-05-10T13:39:36;16.53;;;14.90;;
6197;SDS011;3132;42.622;23.328;2023-05-10T13:42:02;15.83;;;14.33;;
6197;SDS011;3132;42.622;23.328;2023-05-10T13:44:28;17.00;;;15.23;;
6197;SDS011;3132;42.622;23.328;2023-05-10T13:46:55;15.83;;;14.43;;
6197;SDS011;3132;42.622;23.328;2023-05-10T13:49:21;15.93;;;14.43;;
6197;SDS011;3132;42.622;23.328;2023-05-10T13:51:47;16.60;;;15.20;;
6197;SDS011;3132;42.622;23.328;2023-05-10T13:54:12;19.23;;;15.57;;
6197;SDS011;3132;42.622;23.328;2023-05-10T13:56:38;15.27;;;14.00;;
6197;SDS011;3132;42.622;23.328;2023-05-10T13:59:04;15.77;;;14.53;;
6197;SDS011;3132;42.622;23.328;2023-05-10T14:01:29;16.40;;;14.83;;
6197;SDS011;3132;42.622;23.328;2023-05-10T14:03:55;15.63;;;14.43;;
6197;SDS011;3132;42.622;23.328;2023-05-10T14:06:20;17.93;;;16.30;;
6197;SDS011;3132;42.622;23.328;2023-05-10T14:08:46;17.83;;;16.17;;
6197;SDS011;3132;42.622;23.328;2023-05-10T14:11:12;16.60;;;14.90;;
6197;SDS011;3132;42.622;23.328;2023-05-10T14:13:37;17.00;;;15.50;;
6197;SDS011;3132;42.622;23.328;2023-05-10T14:16:03;15.20;;;14.07;;
6197;SDS011;3132;42.622;23.328;2023-05-10T14:18:29;15.53;;;14.30;;
6197;SDS011;3132;42.622;23.328;2023-05-10T14:20:55;15.33;;;13.97;;
6197;SDS011;3132;42.622;23.328;2023-05-10T14:23:21;16.93;;;15.17;;
6197;SDS011;3132;42.622;23.328;2023-05-10T14:25:49;15.27;;;13.87;;
6197;SDS011;3132;42.622;23.328;2023-05-10T14:28:16;16.07;;;14.77;;
6197;SDS011;3132;42.622;23.328;2023-05-10T14:30:42;15.73;;;13.20;;
6197;SDS011;3132;42.622;23.328;2023-05-10T14:33:08;16.97;;;15.37;;
6197;SDS011;3132;42.622;23.328;2023-05-10T14:35:33;14.70;;;13.57;;
6197;SDS011;3132;42.622;23.328;2023-05-10T14:37:59;15.57;;;14.17;;
6197;SDS011;3132;42.622;23.328;2023-05-10T14:40:24;16.43;;;14.73;;
6197;SDS011;3132;42.622;23.328;2023-05-10T14:42:50;18.23;;;13.60;;
6197;SDS011;3132;42.622;23.328;2023-05-10T14:45:15;17.07;;;15.37;;
6197;SDS011;3132;42.622;23.328;2023-05-10T14:47:41;20.73;;;15.00;;
6197;SDS011;3132;42.622;23.328;2023-05-10T14:50:06;16.67;;;15.00;;
6197;SDS011;3132;42.622;23.328;2023-05-10T14:52:32;16.17;;;14.57;;
6197;SDS011;3132;42.622;23.328;2023-05-10T14:54:58;15.23;;;14.03;;
6197;SDS011;3132;42.622;23.328;2023-05-10T14:57:25;16.63;;;15.03;;
6197;SDS011;3132;42.622;23.328;2023-05-10T14:59:50;16.63;;;13.83;;
6197;SDS011;3132;42.622;23.328;2023-05-10T15:02:16;14.83;;;13.63;;
6197;SDS011;3132;42.622;23.328;2023-05-10T15:04:41;16.53;;;14.37;;
6197;SDS011;3132;42.622;23.328;2023-05-10T15:07:06;14.97;;;13.67;;